Portada
METAR-TAF:

METAR-TAF

Aeroports :

Fasa, Iran

latitud: 28-58N, longitud: 053-41E, altitud: 1383 m

Observació

L'informe es va fer fa 5 minuts, a les 22:00 UTC
Vent calma
Temperatura 24°C
Humitat 41%
Pressió 1004 hPa
Visibilitat: 8000 m

METAR: OISF 182200Z 00000KT 8000 NSC 24/10 Q1003 A2964

Hora: 02:35 (22:05 UTC)


TAF: manca

Observacions i pronòstics meteorològics de més de 4000 aeroports (METAR i TAF).

Les estacions disponibles són els punts grocs i vermells al mapa.

Posi el ratolí al punt desitjat per veure el nom de l'estació.

Feu clic per veure les observacions i els pronòstics meteorològics.

Per canviar el mapa: feu clic els botons verds amb una creu de color negre per apropar; al botó verd amb un guió per allunyar la imatge; o en les fletxes verdes per a mapes adjacents.


METAR-TAF: